Time;durP1;ratioP1;P1;durP2;ratioP2;P2;SDS_P1;SDS_P2;PMS_P1;PMS_P2;Temp;Humidity;BMP_temperature;BMP_pressure;BME280_temperature;BME280_humidity;BME280_pressure;Samples;Min_cycle;Max_cycle;Signal;HPM_P1;HPM_P2
2024/01/05 00:00:10;;;;;;;7.38;3.13;;;22.60;37.10;;;;;;4939195;28;20063;-56
2024/01/05 00:02:39;;;;;;;7.38;3.70;;;22.60;37.10;;;;;;4951473;28;20440;-55
2024/01/05 00:05:07;;;;;;;6.28;3.15;;;22.60;37.10;;;;;;4947612;28;20044;-57
2024/01/05 00:07:34;;;;;;;7.93;3.20;;;22.60;37.00;;;;;;4938245;29;20055;-56
2024/01/05 00:10:02;;;;;;;9.35;3.28;;;22.70;37.10;;;;;;4946458;28;20408;-57
2024/01/05 00:12:29;;;;;;;6.53;2.97;;;22.70;37.10;;;;;;4948913;28;20063;-57
2024/01/05 00:14:56;;;;;;;8.25;3.60;;;22.70;37.10;;;;;;4950903;28;20066;-56
2024/01/05 00:17:23;;;;;;;7.00;2.72;;;22.70;37.00;;;;;;4954536;29;20070;-57
2024/01/05 00:19:52;;;;;;;12.45;3.35;;;22.80;37.10;;;;;;4951868;29;20066;-56
2024/01/05 00:22:19;;;;;;;7.57;2.90;;;22.80;37.10;;;;;;4953689;28;20058;-56
2024/01/05 00:24:46;;;;;;;6.78;2.72;;;22.80;37.00;;;;;;4953729;28;20435;-56
2024/01/05 00:27:15;;;;;;;5.22;2.70;;;22.70;37.00;;;;;;4953571;28;20055;-57
2024/01/05 00:29:44;;;;;;;7.55;2.90;;;22.70;37.00;;;;;;4943786;29;20421;-56
2024/01/05 00:32:11;;;;;;;6.22;3.08;;;22.70;37.00;;;;;;4951118;28;20047;-57
2024/01/05 00:34:38;;;;;;;6.30;2.80;;;22.70;37.00;;;;;;4952782;28;20055;-57
2024/01/05 00:37:07;;;;;;;6.57;2.55;;;22.70;37.00;;;;;;4937752;29;20044;-57
2024/01/05 00:39:34;;;;;;;7.10;2.47;;;22.70;37.00;;;;;;4940762;28;20066;-57
2024/01/05 00:42:02;;;;;;;6.05;2.50;;;22.70;37.00;;;;;;4953382;28;20051;-57
2024/01/05 00:44:29;;;;;;;6.25;2.85;;;22.60;36.90;;;;;;4954369;28;20050;-57
2024/01/05 00:46:58;;;;;;;5.82;2.08;;;22.70;37.00;;;;;;4943981;29;20051;-57
2024/01/05 00:49:25;;;;;;;5.25;2.75;;;22.60;37.00;;;;;;4952996;28;20542;-55
2024/01/05 00:51:52;;;;;;;9.32;2.83;;;22.60;37.00;;;;;;4952735;28;20051;-57
2024/01/05 00:54:21;;;;;;;6.07;2.63;;;22.60;37.00;;;;;;4952709;28;20071;-57
2024/01/05 00:56:48;;;;;;;7.00;2.60;;;22.60;37.00;;;;;;4953814;29;20047;-57
2024/01/05 00:59:19;;;;;;;5.25;2.17;;;22.50;37.00;;;;;;4951875;28;20063;-56
2024/01/05 01:01:46;;;;;;;5.85;2.13;;;22.50;37.00;;;;;;4952383;28;20062;-55
2024/01/05 01:04:13;;;;;;;6.43;2.40;;;22.50;37.00;;;;;;4951094;28;20062;-56
2024/01/05 01:06:41;;;;;;;8.63;3.00;;;22.50;37.00;;;;;;4951779;28;20071;-54
2024/01/05 01:09:08;;;;;;;6.53;2.65;;;22.50;37.00;;;;;;4952347;28;20055;-55
2024/01/05 01:11:36;;;;;;;5.10;2.13;;;22.50;37.00;;;;;;4949383;28;20519;-54
2024/01/05 01:14:04;;;;;;;6.90;2.10;;;22.50;37.00;;;;;;4952036;28;20047;-56
2024/01/05 01:16:31;;;;;;;6.65;2.38;;;22.40;37.00;;;;;;4955211;28;20051;-56
2024/01/05 01:18:59;;;;;;;6.22;2.28;;;22.40;37.00;;;;;;4952200;28;20492;-55
2024/01/05 01:21:27;;;;;;;5.03;2.17;;;22.40;37.00;;;;;;4937191;29;20086;-56
2024/01/05 01:23:54;;;;;;;5.10;2.35;;;22.40;37.00;;;;;;4954101;29;20051;-56
2024/01/05 01:26:21;;;;;;;7.10;2.33;;;22.30;37.00;;;;;;4951891;28;20051;-53
2024/01/05 01:28:50;;;;;;;4.90;1.88;;;22.30;37.00;;;;;;4951679;29;20047;-56
2024/01/05 01:31:17;;;;;;;3.60;2.03;;;22.30;37.10;;;;;;4951766;28;20055;-57
2024/01/05 01:33:44;;;;;;;7.90;2.15;;;22.30;37.20;;;;;;4950554;28;20059;-55
2024/01/05 01:36:12;;;;;;;4.70;1.90;;;22.30;37.20;;;;;;4951591;28;20404;-57
2024/01/05 01:38:39;;;;;;;5.32;2.22;;;22.30;37.30;;;;;;4948495;29;20058;-56
2024/01/05 01:41:06;;;;;;;4.82;2.10;;;22.40;37.30;;;;;;4950295;28;20070;-55
2024/01/05 01:43:33;;;;;;;4.32;2.03;;;22.40;37.30;;;;;;4940597;29;20051;-54
2024/01/05 01:46:02;;;;;;;4.43;1.80;;;22.50;37.30;;;;;;4947501;28;20054;-56
2024/01/05 01:48:30;;;;;;;5.80;2.00;;;22.50;37.30;;;;;;4950423;28;20493;-55
2024/01/05 01:50:58;;;;;;;6.43;2.05;;;22.50;37.30;;;;;;4947736;29;20047;-55
2024/01/05 01:53:28;;;;;;;4.05;1.90;;;22.50;37.30;;;;;;4952234;28;20404;-55
2024/01/05 01:55:56;;;;;;;4.88;1.73;;;22.60;37.30;;;;;;4947701;28;20043;-55
2024/01/05 01:58:25;;;;;;;4.03;2.05;;;22.60;37.20;;;;;;4951007;28;20124;-55
2024/01/05 02:00:52;;;;;;;4.53;1.88;;;22.60;37.20;;;;;;4951080;28;20126;-56
2024/01/05 02:03:21;;;;;;;4.60;1.90;;;22.60;37.20;;;;;;4949879;28;20483;-56
2024/01/05 02:05:48;;;;;;;5.47;1.92;;;22.70;37.20;;;;;;4951491;29;20061;-53
2024/01/05 02:08:16;;;;;;;4.00;1.85;;;22.70;37.20;;;;;;4950703;28;20070;-56
2024/01/05 02:10:43;;;;;;;5.35;1.92;;;22.70;37.10;;;;;;4956334;28;20066;-55
2024/01/05 02:13:10;;;;;;;4.43;1.80;;;22.70;37.10;;;;;;4950446;28;20058;-56
2024/01/05 02:15:37;;;;;;;4.43;1.70;;;22.70;37.10;;;;;;4951213;28;20054;-54
2024/01/05 02:18:11;;;;;;;5.28;1.90;;;22.70;37.10;;;;;;4951245;29;20059;-55
2024/01/05 02:20:39;;;;;;;6.57;2.17;;;22.70;37.10;;;;;;4949999;29;20058;-55
2024/01/05 02:23:16;;;;;;;5.97;1.90;;;22.70;37.10;;;;;;4950289;28;20507;-54
2024/01/05 02:25:45;;;;;;;4.90;1.83;;;22.60;37.00;;;;;;4947214;28;20052;-51
2024/01/05 02:28:12;;;;;;;5.68;1.73;;;22.60;37.00;;;;;;4944637;28;20489;-53
2024/01/05 02:30:39;;;;;;;3.78;1.65;;;22.60;37.00;;;;;;4950934;28;20518;-55
2024/01/05 02:33:06;;;;;;;5.65;1.70;;;22.60;37.00;;;;;;4951025;29;20051;-54
2024/01/05 02:35:33;;;;;;;4.28;1.83;;;22.60;37.00;;;;;;4945431;28;20512;-54
2024/01/05 02:38:01;;;;;;;3.65;1.60;;;22.60;37.00;;;;;;4949513;28;20047;-56
2024/01/05 02:40:28;;;;;;;5.30;1.90;;;22.60;37.00;;;;;;4952930;28;20057;-55
2024/01/05 02:42:57;;;;;;;5.38;1.80;;;22.50;37.00;;;;;;4945577;28;20051;-54
2024/01/05 02:45:24;;;;;;;2.80;1.45;;;22.50;37.00;;;;;;4949850;28;20059;-51
2024/01/05 02:47:51;;;;;;;4.20;1.55;;;22.50;37.00;;;;;;4951740;29;20054;-52
2024/01/05 02:50:20;;;;;;;3.97;1.65;;;22.50;37.00;;;;;;4950165;28;20365;-54
2024/01/05 02:52:47;;;;;;;3.53;1.60;;;22.50;37.00;;;;;;4950692;28;20054;-58
2024/01/05 02:55:15;;;;;;;6.47;2.08;;;22.50;37.00;;;;;;4950597;28;20054;-58
2024/01/05 02:57:42;;;;;;;3.20;1.42;;;22.40;37.00;;;;;;4948807;29;20051;-53
2024/01/05 03:00:12;;;;;;;5.10;1.77;;;22.40;37.10;;;;;;4952234;28;20096;-58
2024/01/05 03:02:39;;;;;;;4.88;1.70;;;22.40;37.10;;;;;;4942993;29;20055;-57
2024/01/05 03:05:07;;;;;;;4.03;1.63;;;22.40;37.10;;;;;;4949456;28;20051;-58
2024/01/05 03:07:34;;;;;;;4.80;1.95;;;22.40;37.10;;;;;;4938657;29;20052;-58
2024/01/05 03:10:01;;;;;;;4.60;1.73;;;22.30;37.10;;;;;;4952369;28;20412;-58
2024/01/05 03:12:28;;;;;;;5.45;1.77;;;22.40;37.20;;;;;;4949089;28;20055;-57
2024/01/05 03:18:24;;;;;;;5.75;1.60;;;22.30;37.20;;;;;;4948962;28;20039;-52
2024/01/05 03:20:51;;;;;;;4.40;1.52;;;22.40;37.30;;;;;;4943018;29;20088;-57
2024/01/05 03:23:18;;;;;;;3.10;1.38;;;22.40;37.30;;;;;;4942884;28;20051;-57
2024/01/05 03:25:46;;;;;;;3.83;1.50;;;22.50;37.30;;;;;;4940289;29;20055;-53
2024/01/05 03:28:13;;;;;;;4.82;1.83;;;22.50;37.30;;;;;;4948088;28;20062;-56
2024/01/05 03:30:41;;;;;;;2.97;1.38;;;22.50;37.30;;;;;;4950120;29;20059;-57
2024/01/05 03:33:09;;;;;;;4.18;1.50;;;22.60;37.30;;;;;;4949137;29;20059;-58
2024/01/05 03:35:38;;;;;;;3.10;1.60;;;22.70;37.30;;;;;;4945090;28;20064;-58
2024/01/05 03:38:05;;;;;;;2.75;1.30;;;22.60;37.30;;;;;;4933272;29;20066;-58
2024/01/05 03:40:32;;;;;;;12.73;1.52;;;22.70;37.30;;;;;;4952755;28;20384;-57
2024/01/05 03:43:00;;;;;;;4.00;1.60;;;22.70;37.20;;;;;;4952027;28;20119;-58
2024/01/05 03:45:27;;;;;;;16.60;1.67;;;22.70;37.10;;;;;;4949872;28;20055;-58
2024/01/05 03:47:54;;;;;;;14.18;1.75;;;22.80;37.10;;;;;;4942954;28;20488;-58
2024/01/05 03:50:21;;;;;;;17.63;2.83;;;22.80;37.10;;;;;;4949117;28;20066;-58
2024/01/05 03:52:50;;;;;;;20.02;2.22;;;22.80;37.10;;;;;;4949424;28;20534;-59
2024/01/05 03:55:17;;;;;;;7.63;1.85;;;22.80;37.00;;;;;;4951137;28;20051;-59
2024/01/05 03:57:44;;;;;;;6.70;1.60;;;22.80;36.90;;;;;;4949969;28;20062;-59
2024/01/05 04:00:12;;;;;;;4.68;1.30;;;22.80;36.80;;;;;;4949386;29;20066;-60
2024/01/05 04:02:40;;;;;;;12.45;1.52;;;22.80;36.80;;;;;;4933890;29;20067;-59
2024/01/05 04:05:08;;;;;;;5.40;2.03;;;22.80;36.80;;;;;;4936297;29;20408;-59
2024/01/05 04:07:36;;;;;;;7.95;1.95;;;22.80;36.90;;;;;;4941085;28;20058;-58
2024/01/05 04:10:05;;;;;;;6.05;1.70;;;22.80;36.90;;;;;;4950492;28;20058;-59
2024/01/05 04:12:33;;;;;;;5.15;1.85;;;22.80;36.90;;;;;;4938646;28;20066;-58
2024/01/05 04:15:00;;;;;;;3.78;1.48;;;22.70;36.80;;;;;;4950478;29;20047;-59
2024/01/05 04:17:27;;;;;;;5.43;1.70;;;22.70;36.90;;;;;;4950603;28;20059;-59
2024/01/05 04:19:54;;;;;;;5.00;1.80;;;22.70;36.90;;;;;;4948999;28;20501;-58
2024/01/05 04:22:22;;;;;;;4.53;1.67;;;22.60;36.80;;;;;;4946756;28;20527;-58
2024/01/05 04:24:49;;;;;;;4.70;1.75;;;22.60;36.90;;;;;;4952627;28;20058;-58
2024/01/05 04:27:18;;;;;;;3.80;1.33;;;22.70;36.90;;;;;;4945307;28;20479;-58
2024/01/05 04:29:45;;;;;;;3.90;1.35;;;22.60;37.40;;;;;;4949145;29;20051;-58
2024/01/05 04:32:12;;;;;;;3.42;1.30;;;22.60;36.90;;;;;;4946315;28;20046;-55
2024/01/05 04:34:39;;;;;;;4.55;2.00;;;22.60;36.90;;;;;;4941363;28;20519;-59
2024/01/05 04:37:06;;;;;;;2.58;1.38;;;22.50;36.90;;;;;;4942693;28;20125;-58
2024/01/05 04:39:34;;;;;;;4.80;1.67;;;22.50;37.00;;;;;;4950437;28;20400;-58
2024/01/05 04:42:03;;;;;;;6.32;1.65;;;22.50;37.00;;;;;;4947633;28;20066;-59
2024/01/05 04:44:31;;;;;;;4.75;1.50;;;22.50;37.00;;;;;;4947249;28;20051;-59
2024/01/05 04:46:59;;;;;;;4.70;1.90;;;22.40;36.90;;;;;;4948290;28;20063;-59
2024/01/05 04:49:27;;;;;;;5.28;1.80;;;22.40;36.90;;;;;;4948861;28;20054;-57
2024/01/05 04:51:54;;;;;;;5.65;1.95;;;22.40;36.90;;;;;;4950298;28;20499;-60
2024/01/05 04:54:22;;;;;;;7.25;1.70;;;22.40;37.00;;;;;;4951417;29;20066;-59
2024/01/05 04:56:49;;;;;;;5.22;1.30;;;22.40;37.00;;;;;;4949237;28;20051;-59
2024/01/05 04:59:16;;;;;;;4.07;1.60;;;22.40;37.20;;;;;;4949059;28;20411;-59
2024/01/05 05:01:45;;;;;;;2.30;1.10;;;22.40;37.20;;;;;;4952876;28;20496;-60
2024/01/05 05:04:13;;;;;;;5.28;1.50;;;22.40;37.30;;;;;;4951771;28;20488;-61
2024/01/05 05:06:40;;;;;;;2.92;1.42;;;22.40;37.30;;;;;;4953062;28;20055;-59
2024/01/05 05:09:09;;;;;;;2.15;1.25;;;22.40;37.30;;;;;;4954494;29;20059;-57
2024/01/05 05:11:36;;;;;;;4.10;1.58;;;22.50;37.40;;;;;;4953643;28;20055;-58
2024/01/05 05:14:03;;;;;;;4.78;1.67;;;22.50;37.30;;;;;;4953285;28;20504;-58
2024/01/05 05:16:31;;;;;;;3.15;1.20;;;22.60;37.30;;;;;;4950511;28;20051;-58
2024/01/05 05:18:59;;;;;;;2.88;1.38;;;22.60;37.30;;;;;;4950644;28;20047;-58
2024/01/05 05:21:27;;;;;;;3.47;1.15;;;22.60;37.30;;;;;;4953709;29;20061;-58
2024/01/05 05:23:54;;;;;;;3.08;1.30;;;22.70;37.30;;;;;;4952973;28;20508;-58
2024/01/05 05:26:23;;;;;;;3.30;1.48;;;22.70;37.20;;;;;;4950098;29;20059;-58
2024/01/05 05:28:50;;;;;;;3.25;1.20;;;22.70;37.20;;;;;;4949927;28;20515;-58
2024/01/05 05:31:17;;;;;;;4.95;1.48;;;22.80;37.20;;;;;;4952662;28;20051;-57
2024/01/05 05:33:44;;;;;;;3.05;1.30;;;22.80;37.20;;;;;;4951655;28;20051;-56
2024/01/05 05:36:13;;;;;;;6.53;1.50;;;22.80;37.10;;;;;;4951308;29;20496;-57
2024/01/05 05:38:40;;;;;;;2.88;1.17;;;22.80;37.10;;;;;;4950774;28;20055;-58
2024/01/05 05:41:08;;;;;;;4.28;1.90;;;22.80;37.10;;;;;;4947979;28;20051;-58
2024/01/05 05:43:35;;;;;;;4.15;1.58;;;22.80;37.10;;;;;;4946784;29;20409;-58
2024/01/05 05:46:03;;;;;;;3.60;1.33;;;22.80;37.00;;;;;;4951221;28;20059;-58
2024/01/05 05:48:30;;;;;;;4.63;1.50;;;22.80;37.00;;;;;;4952137;28;20078;-58
2024/01/05 05:50:57;;;;;;;2.20;1.17;;;22.80;37.00;;;;;;4951779;28;20507;-58
2024/01/05 05:53:26;;;;;;;3.33;1.38;;;22.80;37.00;;;;;;4951161;28;20063;-57
2024/01/05 05:55:53;;;;;;;4.10;1.55;;;22.70;37.00;;;;;;4952284;28;20051;-58
2024/01/05 05:58:21;;;;;;;3.97;1.30;;;22.70;37.00;;;;;;4950872;28;20058;-59
2024/01/05 06:00:49;;;;;;;5.03;1.80;;;22.70;37.00;;;;;;4949186;28;20050;-57
2024/01/05 06:03:16;;;;;;;3.83;1.45;;;22.70;37.00;;;;;;4951341;28;20055;-58
2024/01/05 06:05:43;;;;;;;3.55;1.60;;;22.70;37.00;;;;;;4953108;28;20514;-58
2024/01/05 06:08:11;;;;;;;4.43;1.38;;;22.60;36.90;;;;;;4952150;28;20051;-58
2024/01/05 06:10:39;;;;;;;5.50;1.92;;;22.60;36.90;;;;;;4951068;28;20484;-57
2024/01/05 06:13:07;;;;;;;5.75;1.25;;;22.60;37.00;;;;;;4952531;28;20047;-58
2024/01/05 06:15:34;;;;;;;6.43;1.70;;;22.60;37.00;;;;;;4953345;28;20059;-59
2024/01/05 06:18:01;;;;;;;7.55;1.70;;;22.60;37.00;;;;;;4950379;28;20512;-57
2024/01/05 06:20:28;;;;;;;8.65;2.05;;;22.60;37.20;;;;;;4948068;28;20492;-58
2024/01/05 06:22:55;;;;;;;15.95;2.35;;;22.60;37.00;;;;;;4957878;28;20055;-56
2024/01/05 06:25:23;;;;;;;6.25;2.22;;;22.60;36.80;;;;;;4952646;28;20051;-60
2024/01/05 06:27:51;;;;;;;6.93;1.70;;;22.60;36.90;;;;;;4950732;28;20066;-58
2024/01/05 06:30:19;;;;;;;4.72;1.60;;;22.60;36.90;;;;;;4951846;29;20059;-57
2024/01/05 06:32:46;;;;;;;10.25;2.92;;;22.60;36.90;;;;;;4951754;29;20479;-60
2024/01/05 06:35:13;;;;;;;57.03;25.83;;;22.60;36.90;;;;;;4949849;28;20062;-61
2024/01/05 06:37:41;;;;;;;69.00;37.88;;;22.70;36.80;;;;;;4951770;28;20058;-61
2024/01/05 06:40:10;;;;;;;48.42;28.17;;;22.70;36.60;;;;;;4955807;28;20516;-57
2024/01/05 06:42:37;;;;;;;33.53;19.02;;;22.70;36.60;;;;;;4952646;28;20511;-56
2024/01/05 06:45:07;;;;;;;26.65;14.93;;;22.80;36.60;;;;;;4948458;28;20055;-58
2024/01/05 06:47:34;;;;;;;26.00;14.68;;;22.80;36.70;;;;;;4947219;28;20407;-58
2024/01/05 06:50:02;;;;;;;22.27;12.77;;;22.70;36.80;;;;;;4946524;28;20051;-57
2024/01/05 06:52:29;;;;;;;22.33;12.75;;;22.80;36.80;;;;;;4949716;28;20063;-58
2024/01/05 06:54:56;;;;;;;27.50;11.35;;;22.80;36.80;;;;;;4950325;28;20397;-55
2024/01/05 06:57:24;;;;;;;25.58;11.65;;;22.80;36.80;;;;;;4950174;28;20054;-58
2024/01/05 06:59:51;;;;;;;20.95;10.73;;;22.80;36.80;;;;;;4952370;28;20059;-57
2024/01/05 07:02:20;;;;;;;19.95;9.70;;;22.80;36.80;;;;;;4951307;28;20538;-59
2024/01/05 07:04:48;;;;;;;53.35;27.92;;;22.80;36.80;;;;;;4949388;28;20059;-58
2024/01/05 07:07:15;;;;;;;66.43;37.97;;;22.80;36.60;;;;;;4952402;28;20066;-58
2024/01/05 07:09:43;;;;;;;47.85;27.33;;;22.70;36.40;;;;;;4953163;28;20396;-58
2024/01/05 07:12:10;;;;;;;38.85;17.20;;;22.80;36.30;;;;;;4950470;28;20055;-58
2024/01/05 07:14:37;;;;;;;24.05;13.88;;;22.70;36.20;;;;;;4948678;28;20539;-56
2024/01/05 07:17:06;;;;;;;24.00;13.85;;;22.70;36.30;;;;;;4951628;28;20079;-57
2024/01/05 07:19:34;;;;;;;21.80;12.23;;;22.70;36.30;;;;;;4935677;29;20480;-55
2024/01/05 07:22:02;;;;;;;24.60;13.52;;;22.60;36.40;;;;;;4951120;28;20066;-56
2024/01/05 07:24:29;;;;;;;22.00;12.93;;;22.60;36.90;;;;;;4948069;28;20066;-58
2024/01/05 07:26:57;;;;;;;23.08;11.35;;;22.60;36.40;;;;;;4943258;29;20408;-58
2024/01/05 07:29:24;;;;;;;36.20;12.27;;;22.60;36.50;;;;;;4950267;28;20055;-60
2024/01/05 07:31:51;;;;;;;23.75;10.98;;;22.60;36.60;;;;;;4947641;28;20055;-62
2024/01/05 07:34:19;;;;;;;15.52;9.23;;;22.50;36.60;;;;;;4946117;29;20515;-62
2024/01/05 07:36:47;;;;;;;23.60;9.73;;;22.50;36.60;;;;;;4964152;28;20061;-62
2024/01/05 07:39:15;;;;;;;16.63;7.43;;;22.50;36.60;;;;;;4952207;28;20063;-62
2024/01/05 07:41:42;;;;;;;11.45;6.30;;;22.50;36.40;;;;;;4954220;28;20501;-62
2024/01/05 07:44:09;;;;;;;14.93;6.15;;;22.50;36.10;;;;;;4950585;28;20077;-62
2024/01/05 07:46:41;;;;;;;11.38;5.90;;;22.50;36.10;;;;;;4944988;28;20419;-62
2024/01/05 07:49:09;;;;;;;11.38;6.28;;;22.50;36.20;;;;;;4948967;28;20047;-61
2024/01/05 07:51:36;;;;;;;11.02;5.28;;;22.40;36.30;;;;;;4946765;29;20416;-62
2024/01/05 07:54:05;;;;;;;13.45;5.82;;;22.40;36.50;;;;;;4952683;28;20496;-61
2024/01/05 07:56:38;;;;;;;21.40;5.78;;;22.40;36.60;;;;;;4950822;28;20062;-62
2024/01/05 07:59:05;;;;;;;10.60;5.20;;;22.40;36.80;;;;;;4947007;28;20416;-61
2024/01/05 08:01:33;;;;;;;10.60;5.18;;;22.40;36.80;;;;;;4950237;28;20408;-62
2024/01/05 08:04:00;;;;;;;10.52;4.93;;;22.40;36.80;;;;;;4950084;29;20055;-66
2024/01/05 08:06:28;;;;;;;17.33;5.35;;;22.40;36.90;;;;;;4956409;28;20065;-61
2024/01/05 08:08:55;;;;;;;23.00;4.70;;;22.40;37.00;;;;;;4950396;29;20051;-61
2024/01/05 08:11:24;;;;;;;17.45;4.60;;;22.50;37.00;;;;;;4950665;28;20054;-61
2024/01/05 08:13:51;;;;;;;13.82;3.83;;;22.50;37.00;;;;;;4950007;28;20051;-60
2024/01/05 08:16:19;;;;;;;9.52;3.65;;;22.60;37.00;;;;;;4949630;28;20063;-60
2024/01/05 08:18:46;;;;;;;17.55;4.18;;;22.60;37.00;;;;;;4949849;29;20063;-60
2024/01/05 08:21:14;;;;;;;16.77;3.97;;;22.60;37.00;;;;;;4949241;28;20060;-59
2024/01/05 08:23:41;;;;;;;13.32;3.60;;;22.60;36.90;;;;;;4943556;28;20059;-59
2024/01/05 08:26:08;;;;;;;9.98;3.63;;;22.70;37.00;;;;;;4946042;28;20066;-59
2024/01/05 08:28:37;;;;;;;12.27;3.75;;;22.80;37.00;;;;;;4949232;28;20051;-61
2024/01/05 08:31:05;;;;;;;7.38;3.35;;;22.80;37.00;;;;;;4950871;29;20516;-61
2024/01/05 08:33:33;;;;;;;11.20;3.97;;;22.80;37.00;;;;;;4945616;29;20070;-61
2024/01/05 08:36:00;;;;;;;23.60;3.90;;;22.90;37.00;;;;;;4944947;28;20055;-60
2024/01/05 08:38:27;;;;;;;10.93;3.28;;;22.90;37.00;;;;;;4949856;28;20074;-60
2024/01/05 08:40:55;;;;;;;7.70;2.95;;;23.00;36.90;;;;;;4963668;28;20059;-60
2024/01/05 08:43:22;;;;;;;7.72;2.90;;;23.00;36.80;;;;;;4955551;28;20059;-60
2024/01/05 08:45:51;;;;;;;5.90;2.90;;;23.10;36.80;;;;;;4954381;29;20424;-60
2024/01/05 08:48:18;;;;;;;8.07;2.45;;;23.10;36.70;;;;;;4952903;28;20059;-60
2024/01/05 08:50:46;;;;;;;4.82;2.15;;;23.10;36.70;;;;;;4953637;28;20074;-60
2024/01/05 08:53:13;;;;;;;7.30;2.65;;;23.10;36.70;;;;;;4953187;28;20058;-59
2024/01/05 08:55:40;;;;;;;5.82;2.30;;;23.10;36.60;;;;;;4953526;28;20522;-60
2024/01/05 08:58:08;;;;;;;4.65;2.15;;;23.10;36.60;;;;;;4954726;28;20055;-60
2024/01/05 09:00:35;;;;;;;3.22;1.90;;;23.10;36.60;;;;;;4953485;28;20062;-60
2024/01/05 09:03:04;;;;;;;5.55;2.22;;;23.10;36.60;;;;;;4953008;28;20144;-60
2024/01/05 09:05:31;;;;;;;5.20;2.15;;;23.10;36.60;;;;;;4952614;28;20427;-60
2024/01/05 09:07:59;;;;;;;12.40;2.60;;;23.10;36.60;;;;;;4953583;28;20058;-60
2024/01/05 09:10:26;;;;;;;17.52;2.53;;;23.10;36.60;;;;;;4949975;28;20480;-60
2024/01/05 09:12:54;;;;;;;6.47;2.25;;;23.10;36.30;;;;;;4953506;29;20408;-59
2024/01/05 09:15:22;;;;;;;10.48;1.92;;;23.10;36.30;;;;;;4951519;28;20058;-58
2024/01/05 09:17:50;;;;;;;8.32;2.05;;;23.10;36.30;;;;;;4953439;28;20055;-60
2024/01/05 09:20:18;;;;;;;7.88;1.63;;;23.10;36.90;;;;;;4952060;28;20066;-59
2024/01/05 09:22:45;;;;;;;4.95;2.25;;;23.00;36.40;;;;;;4947492;28;20066;-60
2024/01/05 09:25:13;;;;;;;8.15;1.88;;;23.00;36.40;;;;;;4953723;29;20051;-62
2024/01/05 09:27:40;;;;;;;5.50;1.85;;;23.00;36.50;;;;;;4952210;28;20059;-59
2024/01/05 09:30:08;;;;;;;4.47;1.80;;;23.00;36.60;;;;;;4950430;28;20051;-61
2024/01/05 09:32:35;;;;;;;19.23;2.97;;;23.00;36.60;;;;;;4958101;28;20527;-60
2024/01/05 09:35:02;;;;;;;9.50;1.58;;;23.00;36.70;;;;;;4950186;28;20059;-60
2024/01/05 09:37:31;;;;;;;2.10;1.00;;;22.90;36.60;;;;;;4944390;28;20062;-63
2024/01/05 09:39:58;;;;;;;3.47;1.10;;;22.90;36.60;;;;;;4943703;29;20070;-61
2024/01/05 09:42:26;;;;;;;2.60;1.30;;;22.90;36.50;;;;;;4948027;28;20055;-61
2024/01/05 09:44:54;;;;;;;2.45;0.90;;;22.90;36.50;;;;;;4945967;28;20106;-61
2024/01/05 09:47:23;;;;;;;3.75;1.30;;;22.90;36.40;;;;;;4946973;28;20074;-61
2024/01/05 09:49:50;;;;;;;2.60;0.82;;;22.90;36.10;;;;;;4948425;28;20051;-61
2024/01/05 09:52:20;;;;;;;2.00;0.88;;;22.80;35.90;;;;;;4939620;28;20504;-60
2024/01/05 09:54:50;;;;;;;3.90;1.00;;;22.80;35.70;;;;;;4948535;28;20062;-61
2024/01/05 09:57:18;;;;;;;5.03;1.33;;;22.80;35.60;;;;;;4946876;28;20051;-59
2024/01/05 09:59:48;;;;;;;2.58;0.75;;;22.70;35.50;;;;;;4948596;28;20080;-63
2024/01/05 10:02:22;;;;;;;1.45;0.52;;;22.60;35.40;;;;;;4948907;28;20066;-60
2024/01/05 10:04:49;;;;;;;1.45;0.57;;;22.60;35.40;;;;;;4946888;28;20051;-59
2024/01/05 10:07:18;;;;;;;0.95;0.45;;;22.60;35.40;;;;;;4951110;28;20508;-60
2024/01/05 10:09:55;;;;;;;1.90;0.60;;;22.60;35.40;;;;;;4947591;28;20051;-59
2024/01/05 10:12:22;;;;;;;0.98;0.45;;;22.60;35.40;;;;;;4947074;28;20062;-60
2024/01/05 10:14:50;;;;;;;1.60;0.55;;;22.60;35.40;;;;;;4949012;28;20067;-59
2024/01/05 10:17:17;;;;;;;3.80;0.60;;;22.60;35.40;;;;;;4948631;28;20051;-60
2024/01/05 10:19:45;;;;;;;0.95;0.50;;;22.60;35.30;;;;;;4948309;28;20050;-60
2024/01/05 10:22:14;;;;;;;1.70;0.50;;;22.70;35.30;;;;;;4953623;28;20054;-60
2024/01/05 10:24:42;;;;;;;0.85;0.40;;;22.70;35.20;;;;;;4947198;28;20534;-60
2024/01/05 10:27:12;;;;;;;0.38;0.20;;;22.70;35.10;;;;;;4945610;28;20055;-60
2024/01/05 10:29:43;;;;;;;1.48;0.50;;;22.70;34.90;;;;;;4946750;28;20054;-59
2024/01/05 10:32:14;;;;;;;0.30;0.20;;;22.70;34.70;;;;;;4948244;28;20070;-59
2024/01/05 10:34:43;;;;;;;1.65;0.38;;;22.80;34.80;;;;;;4944266;28;20055;-59
2024/01/05 10:37:11;;;;;;;0.95;0.45;;;22.70;34.60;;;;;;4948866;28;20783;-60
2024/01/05 10:39:39;;;;;;;1.50;0.50;;;22.70;34.70;;;;;;4948200;28;20047;-60
2024/01/05 10:42:21;;;;;;;0.75;0.40;;;22.70;34.80;;;;;;4949097;28;20416;-61
2024/01/05 10:44:51;;;;;;;0.55;0.30;;;22.70;34.80;;;;;;4948755;28;20075;-61
2024/01/05 10:47:19;;;;;;;0.40;0.28;;;22.70;34.90;;;;;;4945965;28;20055;-59
2024/01/05 10:49:50;;;;;;;2.20;0.30;;;22.70;35.00;;;;;;4947734;28;20498;-60
2024/01/05 10:52:18;;;;;;;0.60;0.32;;;22.70;35.10;;;;;;4949388;28;20070;-61
2024/01/05 10:54:47;;;;;;;1.08;0.20;;;22.60;35.10;;;;;;4948374;28;20055;-60
2024/01/05 10:57:16;;;;;;;5.68;0.40;;;22.60;35.20;;;;;;4945576;28;20093;-61
2024/01/05 10:59:48;;;;;;;0.40;0.20;;;22.60;35.20;;;;;;4945656;28;20059;-61
2024/01/05 11:02:21;;;;;;;0.32;0.30;;;22.60;35.30;;;;;;4945732;28;20055;-59
2024/01/05 11:04:57;;;;;;;0.30;0.25;;;22.60;35.30;;;;;;4947412;28;20055;-60
2024/01/05 11:07:25;;;;;;;0.90;0.30;;;22.60;35.20;;;;;;4949510;28;20048;-59
2024/01/05 11:10:02;;;;;;;0.80;0.40;;;22.60;35.30;;;;;;4947226;28;20047;-57
2024/01/05 11:12:44;;;;;;;0.50;0.40;;;22.50;35.30;;;;;;4945693;28;20058;-59
2024/01/05 11:15:30;;;;;;;0.68;0.30;;;22.50;35.40;;;;;;4948391;28;20054;-59
2024/01/05 11:18:45;;;;;;;1.05;0.30;;;22.50;35.30;;;;;;4945289;28;20054;-58
2024/01/05 11:21:17;;;;;;;3.13;0.40;;;22.50;35.30;;;;;;4905728;29;20056;-59
2024/01/05 11:23:45;;;;;;;0.43;0.20;;;22.50;35.40;;;;;;4939184;28;20062;-59
2024/01/05 11:26:32;;;;;;;0.50;0.30;;;22.50;35.50;;;;;;4944039;28;20059;-59
2024/01/05 11:28:59;;;;;;;0.28;0.28;;;22.40;35.40;;;;;;4943846;28;20059;-59
2024/01/05 11:31:53;;;;;;;1.08;0.35;;;22.40;35.50;;;;;;4947109;28;20260;-59
2024/01/05 11:34:34;;;;;;;0.80;0.40;;;22.40;35.50;;;;;;4945643;28;20055;-59
2024/01/05 11:37:02;;;;;;;0.57;0.30;;;22.40;35.50;;;;;;4945749;28;20058;-60
2024/01/05 11:39:40;;;;;;;0.50;0.35;;;22.40;35.60;;;;;;4947588;28;20055;-58
2024/01/05 11:42:08;;;;;;;1.23;0.77;;;22.30;35.60;;;;;;4950554;28;20051;-60
2024/01/05 11:44:36;;;;;;;1.05;0.40;;;22.30;35.60;;;;;;4946084;28;20055;-60
2024/01/05 11:47:05;;;;;;;0.30;0.30;;;22.30;35.60;;;;;;4945665;28;20074;-60
2024/01/05 11:49:41;;;;;;;0.73;0.40;;;22.30;35.60;;;;;;4947031;28;20051;-60
2024/01/05 11:52:08;;;;;;;0.82;0.50;;;22.30;35.50;;;;;;4950338;28;20071;-60
2024/01/05 11:54:36;;;;;;;0.70;0.30;;;22.20;35.50;;;;;;4950214;28;20057;-59
2024/01/05 11:57:04;;;;;;;1.05;0.60;;;22.20;35.60;;;;;;4949616;28;20416;-60
2024/01/05 11:59:32;;;;;;;0.63;0.30;;;22.20;35.60;;;;;;4947412;28;20051;-58
2024/01/05 12:01:59;;;;;;;0.80;0.30;;;22.30;35.60;;;;;;4946408;28;20403;-59
2024/01/05 12:04:27;;;;;;;1.13;0.22;;;22.20;35.50;;;;;;4948170;28;20055;-58
2024/01/05 12:06:55;;;;;;;0.65;0.38;;;22.30;35.60;;;;;;4946355;28;20051;-60
2024/01/05 12:09:22;;;;;;;1.00;0.40;;;22.30;35.70;;;;;;4946739;28;20070;-60
2024/01/05 12:11:50;;;;;;;0.25;0.20;;;22.40;35.70;;;;;;4952883;28;20047;-58
2024/01/05 12:14:27;;;;;;;0.68;0.40;;;22.40;35.70;;;;;;4951970;28;20415;-61
2024/01/05 12:16:55;;;;;;;1.52;0.45;;;22.40;35.60;;;;;;4954145;28;20051;-60
2024/01/05 12:19:22;;;;;;;0.47;0.20;;;22.50;35.60;;;;;;4950720;28;20054;-63
2024/01/05 12:21:54;;;;;;;0.85;0.40;;;22.50;35.50;;;;;;4956155;28;20833;-61
2024/01/05 12:24:21;;;;;;;0.38;0.22;;;22.50;35.40;;;;;;4952974;28;20423;-60
2024/01/05 12:26:54;;;;;;;1.92;0.52;;;22.50;35.40;;;;;;4952031;28;20055;-66
2024/01/05 12:32:49;;;;;;;0.77;0.40;;;22.50;35.30;;;;;;4938171;28;20051;-61
2024/01/05 12:35:16;;;;;;;0.50;0.30;;;22.50;35.30;;;;;;4950026;28;20081;-60
2024/01/05 12:37:57;;;;;;;0.47;0.30;;;22.60;35.30;;;;;;4954309;28;20069;-62
2024/01/05 12:40:26;;;;;;;0.57;0.20;;;22.50;35.40;;;;;;4953869;28;20051;-60
2024/01/05 12:42:54;;;;;;;1.02;0.50;;;22.50;35.40;;;;;;4951657;28;20058;-63
2024/01/05 12:45:23;;;;;;;0.93;0.40;;;22.50;35.40;;;;;;4953920;28;20062;-59
2024/01/05 12:47:51;;;;;;;0.70;0.32;;;22.50;35.40;;;;;;4953172;28;20047;-61
2024/01/05 12:50:25;;;;;;;1.73;0.50;;;22.50;35.40;;;;;;4951115;28;20587;-61
2024/01/05 12:52:53;;;;;;;;;;;22.50;35.50;;;;;;4955267;28;20492;-58
2024/01/05 12:55:31;;;;;;;1.02;0.50;;;22.50;35.50;;;;;;4958651;28;19922;-60
2024/01/05 12:58:02;;;;;;;4.00;0.88;;;22.50;35.40;;;;;;4953656;28;20066;-61